Shirahamamaru — JG4872 — position and weather

sailwx.info

Track history (hours):
 
Tides and Currents Weather Stations Pressure Air Temp Water Temp Dewpoint Dewpoint Depression Visibility Wind Speed Wind Dir Waves Ship Positions

Shirahamamaru

Last reported at 2017-Sep-19 22:30 UTC. Time now 2017-Sep-19 22:26 UTC.
Position N 35°13' E 139°44'.

Length 79 m; draft 3.2 m.

Type: Passenger vessel. MMSI: 431000239.

Date/timePositionNaut miles runAvg speedWind from/ knotsBaromVisibWave heightAir tempDewpointWater temp
2017-Sep-19 22:30N 35°13' E 139°44'1 1.9
2017-Sep-19 22:00N 35°13' E 139°43'4 8.9
2017-Sep-19 21:30N 35°11' E 139°48'1 2.9
2017-Sep-19 21:00N 35°10' E 139°49'0 0.0
2017-Sep-19 10:56N 35°10' E 139°49'410.0
2017-Sep-19 10:30N 35°13' E 139°45'2 3.2
2017-Sep-19 10:00N 35°13' E 139°43'610.9
2017-Sep-19 09:30N 35°10' E 139°49'0 0.9
2017-Sep-19 09:00N 35°10' E 139°49'611.7
2017-Sep-19 08:30N 35°13' E 139°43'1 1.4
2017-Sep-19 08:00N 35°13' E 139°44'5 9.9
2017-Sep-19 07:29N 35°10' E 139°49'0 0.2
2017-Sep-19 07:00N 35°10' E 139°49'611.6
2017-Sep-19 06:30N 35°13' E 139°43'0 0.3
2017-Sep-19 06:00N 35°13' E 139°43'0 0.0
2017-Sep-19 05:30N 35°13' E 139°43'3 5.2
2017-Sep-19 05:00N 35°13' E 139°46'3 6.9
2017-Sep-19 04:30N 35°10' E 139°49'0 0.0
2017-Sep-19 04:00N 35°10' E 139°49'3 6.5
2017-Sep-19 03:30N 35°12' E 139°46'3 5.4
2017-Sep-19 03:00N 35°13' E 139°43'0 0.0
2017-Sep-19 02:30N 35°13' E 139°43'0 0.1
2017-Sep-19 02:00N 35°13' E 139°43'611.1
2017-Sep-19 01:30N 35°10' E 139°49'0 0.6
2017-Sep-19 01:00N 35°10' E 139°49'611.8
2017-Sep-19 00:30N 35°13' E 139°43'0 0.5
2017-Sep-19 00:00N 35°13' E 139°43'4 7.2
2017-Sep-18 23:30N 35°12' E 139°47'2 5.0
2017-Sep-18 23:00N 35°10' E 139°49'5 9.6
2017-Sep-18 22:30N 35°13' E 139°44'1 2.2
2017-Sep-18 22:00N 35°13' E 139°43'4 8.8
2017-Sep-18 21:30N 35°11' E 139°48'1 2.9
2017-Sep-18 21:00N 35°10' E 139°49'0 0.0
2017-Sep-18 11:05N 35°10' E 139°49'0 0.0
2017-Sep-18 11:00N 35°10' E 139°49'4 7.8
2017-Sep-18 10:30N 35°12' E 139°45'2 4.0
2017-Sep-18 10:00N 35°13' E 139°43'510.7
2017-Sep-18 09:30N 35°11' E 139°49'0 0.9
2017-Sep-18 09:00N 35°10' E 139°49'611.5
2017-Sep-18 08:30N 35°13' E 139°43'0 0.5
2017-Sep-18 08:00N 35°13' E 139°43'1 2.5
2017-Sep-18 07:30N 35°13' E 139°44'5 9.2
2017-Sep-18 07:01N 35°18' E 139°43'3 6.0
2017-Sep-18 06:30N 35°19' E 139°39'0 0.1
2017-Sep-18 06:01N 35°19' E 139°39'0 0.1
2017-Sep-18 05:31N 35°19' E 139°39'0 0.0
2017-Sep-18 05:00N 35°19' E 139°39'0 0.0
2017-Sep-18 04:31N 35°19' E 139°39'0 0.0
2017-Sep-18 04:01N 35°19' E 139°39'0 0.0
2017-Sep-18 03:30N 35°19' E 139°39'0 0.0
2017-Sep-18 03:01N 35°19' E 139°39'0 0.0
2017-Sep-18 02:31N 35°19' E 139°39'0 0.0
2017-Sep-18 02:00N 35°19' E 139°39'0 0.0
2017-Sep-18 01:30N 35°19' E 139°39'0 0.0
2017-Sep-18 01:00N 35°19' E 139°39'0 0.0
2017-Sep-18 00:30N 35°19' E 139°39'0 0.0
2017-Sep-18 00:00N 35°19' E 139°39'0 0.0
2017-Sep-17 23:29N 35°19' E 139°39'0 0.0
2017-Sep-17 23:00N 35°19' E 139°39'0 0.0
2017-Sep-17 22:30N 35°19' E 139°39'0 0.0
2017-Sep-17 22:00N 35°19' E 139°39'0 0.0
2017-Sep-17 21:30N 35°19' E 139°39'0 0.0
2017-Sep-17 21:00N 35°19' E 139°39'0 0.0
2017-Sep-17 20:30N 35°19' E 139°39'0 0.0
2017-Sep-17 20:00N 35°19' E 139°39'0 0.0
2017-Sep-17 19:30N 35°19' E 139°39'0 0.0
2017-Sep-17 19:01N 35°19' E 139°39'0 0.0
2017-Sep-17 18:30N 35°19' E 139°39'0 0.0
2017-Sep-17 18:00N 35°19' E 139°39'0 0.0
2017-Sep-17 17:30N 35°19' E 139°39'0 0.0
2017-Sep-17 17:00N 35°19' E 139°39'0 0.0
2017-Sep-17 16:30N 35°19' E 139°39'0 0.1
2017-Sep-17 16:01N 35°19' E 139°39'0 0.0
2017-Sep-17 15:30N 35°19' E 139°39'0 0.0
2017-Sep-17 15:00N 35°19' E 139°39'0 0.0
2017-Sep-17 14:30N 35°19' E 139°39'0 0.1
2017-Sep-17 14:00N 35°19' E 139°39'0 0.2
2017-Sep-17 13:31N 35°19' E 139°39'0 0.0
2017-Sep-17 12:59N 35°19' E 139°39'0 0.0
2017-Sep-17 12:30N 35°19' E 139°39'0 0.0
2017-Sep-17 12:00N 35°19' E 139°39'0 0.0
2017-Sep-17 11:31N 35°19' E 139°39'0 0.0
2017-Sep-17 11:01N 35°19' E 139°39'0 0.0
2017-Sep-17 10:30N 35°19' E 139°39'0 0.0
2017-Sep-17 10:00N 35°19' E 139°39'0 0.0
2017-Sep-17 09:30N 35°19' E 139°39'0 0.0
2017-Sep-17 09:00N 35°19' E 139°39'0 0.0
2017-Sep-17 08:30N 35°19' E 139°39'0 0.0
2017-Sep-17 08:00N 35°19' E 139°39'0 0.0
2017-Sep-17 07:30N 35°19' E 139°39'1 1.9
2017-Sep-17 07:00N 35°19' E 139°41'510.5
2017-Sep-17 06:30N 35°15' E 139°45'3 5.9
2017-Sep-17 06:00N 35°13' E 139°43'4 8.8
2017-Sep-17 05:30N 35°11' E 139°48'2 3.0
2017-Sep-17 05:00N 35°10' E 139°49'5 9.9
2017-Sep-17 04:30N 35°13' E 139°44'1 2.0
2017-Sep-17 04:00N 35°13' E 139°43'510.9
2017-Sep-17 03:30N 35°10' E 139°49'0 0.9
2017-Sep-17 03:00N 35°10' E 139°49'611.8
2017-Sep-17 02:30N 35°13' E 139°43'0 0.4
2017-Sep-17 02:00N 35°13' E 139°43'510.8
2017-Sep-17 01:30N 35°10' E 139°49'1 1.0
2017-Sep-17 01:00N 35°10' E 139°49'611.7
2017-Sep-17 00:30N 35°13' E 139°43'0 0.5
2017-Sep-17 00:00N 35°13' E 139°43'3 6.9
2017-Sep-16 23:31N 35°12' E 139°47'3 5.0
2017-Sep-16 23:00N 35°10' E 139°49'5 9.8
2017-Sep-16 22:30N 35°13' E 139°44'1 2.0
2017-Sep-16 22:00N 35°13' E 139°43'4 8.6
2017-Sep-16 21:30N 35°11' E 139°48'2 3.2
2017-Sep-16 21:00N 35°10' E 139°49'0 0.0
2017-Sep-16 11:00N 35°10' E 139°49'4 7.7
2017-Sep-16 10:30N 35°12' E 139°45'2 4.0
2017-Sep-16 09:59N 35°13' E 139°43'511.1
2017-Sep-16 09:30N 35°11' E 139°49'1 1.1
2017-Sep-16 09:01N 35°10' E 139°49'611.7
2017-Sep-16 08:30N 35°13' E 139°43'0 0.7
2017-Sep-16 08:00N 35°13' E 139°43'511.1
2017-Sep-16 07:30N 35°10' E 139°49'0 0.2
2017-Sep-16 07:00N 35°10' E 139°49'611.6
2017-Sep-16 06:30N 35°13' E 139°43'0 0.4
2017-Sep-16 06:00N 35°13' E 139°43'4 8.6
2017-Sep-16 05:30N 35°11' E 139°48'2 3.2
2017-Sep-16 05:00N 35°10' E 139°49'510.3
2017-Sep-16 04:30N 35°13' E 139°44'1 1.5
2017-Sep-16 04:00N 35°13' E 139°43'510.9
2017-Sep-16 03:30N 35°10' E 139°49'0 0.1
2017-Sep-16 03:00N 35°10' E 139°49'510.9
2017-Sep-16 02:30N 35°13' E 139°43'0 0.0
2017-Sep-16 02:00N 35°13' E 139°43'611.0
2017-Sep-16 01:30N 35°10' E 139°49'0 0.1
2017-Sep-16 01:00N 35°10' E 139°49'611.2
2017-Sep-16 00:30N 35°13' E 139°43'0 0.3
2017-Sep-16 00:00N 35°13' E 139°43'4 7.0
2017-Sep-15 23:30N 35°12' E 139°47'2 4.7
2017-Sep-15 23:00N 35°10' E 139°49'510.0
2017-Sep-15 22:30N 35°13' E 139°44'1 1.9
2017-Sep-15 22:00N 35°13' E 139°43'5 9.0
2017-Sep-15 21:30N 35°11' E 139°47'1 2.8
2017-Sep-15 21:00N 35°10' E 139°49'0 0.0
2017-Sep-15 11:12N 35°10' E 139°49'0 0.0
2017-Sep-15 11:00N 35°10' E 139°49'4 8.7
2017-Sep-15 10:30N 35°13' E 139°45'2 3.4
2017-Sep-15 10:00N 35°13' E 139°43'511.0
2017-Sep-15 09:30N 35°10' E 139°49'0 1.0
2017-Sep-15 09:00N 35°10' E 139°49'611.9
2017-Sep-15 08:30N 35°13' E 139°43'1 1.1
2017-Sep-15 08:00N 35°13' E 139°44'510.6
2017-Sep-15 07:30N 35°10' E 139°49'0 0.3
2017-Sep-15 07:00N 35°10' E 139°49'611.7
2017-Sep-15 06:31N 35°13' E 139°43'0 0.4
2017-Sep-15 05:59N 35°13' E 139°43'0 0.0
2017-Sep-15 05:30N 35°13' E 139°43'2 4.7
2017-Sep-15 05:01N 35°12' E 139°45'4 7.0
2017-Sep-15 04:30N 35°10' E 139°49'0 0.0
2017-Sep-15 04:00N 35°10' E 139°49'3 6.6
2017-Sep-15 03:30N 35°12' E 139°46'3 5.2
2017-Sep-15 03:00N 35°13' E 139°43'0 0.0
2017-Sep-15 02:30N 35°13' E 139°43'0 0.2
2017-Sep-15 02:00N 35°13' E 139°43'511.1
2017-Sep-15 01:30N 35°11' E 139°49'0 0.4
2017-Sep-15 01:00N 35°10' E 139°49'611.3
2017-Sep-15 00:30N 35°13' E 139°43'0 0.4
2017-Sep-15 00:00N 35°13' E 139°43'4 7.1
2017-Sep-14 23:30N 35°12' E 139°47'2 4.7
2017-Sep-14 23:00N 35°10' E 139°49'5 9.6
2017-Sep-14 22:30N 35°13' E 139°44'1 2.2
2017-Sep-14 22:00N 35°13' E 139°43'4 8.8
2017-Sep-14 21:30N 35°11' E 139°47'2 3.0
2017-Sep-14 21:01N 35°10' E 139°49'0 0.0
2017-Sep-14 10:56N 35°10' E 139°49'4 9.7
2017-Sep-14 10:31N 35°13' E 139°45'2 3.5
2017-Sep-14 10:01N 35°13' E 139°43'610.9
2017-Sep-14 09:30N 35°10' E 139°49'0 0.4
2017-Sep-14 09:01N 35°10' E 139°49'611.2
2017-Sep-14 08:30N 35°13' E 139°43'1 1.1
2017-Sep-14 08:00N 35°13' E 139°44'510.1
2017-Sep-14 07:29N 35°10' E 139°49'0 0.7
2017-Sep-14 07:01N 35°10' E 139°49'611.1
2017-Sep-14 06:31N 35°13' E 139°43'0 0.2
2017-Sep-14 06:00N 35°13' E 139°43'0 0.0
2017-Sep-14 05:29N 35°13' E 139°43'2 5.2
2017-Sep-14 05:00N 35°12' E 139°46'3 6.9
2017-Sep-14 04:31N 35°10' E 139°49'0 0.0
2017-Sep-14 04:01N 35°10' E 139°49'3 6.1
2017-Sep-14 03:31N 35°12' E 139°46'3 4.6
2017-Sep-14 02:54N 35°13' E 139°43'0 0.0
2017-Sep-14 02:26N 35°13' E 139°43'0 0.1
2017-Sep-14 02:00N 35°13' E 139°43'510.8
2017-Sep-14 01:31N 35°11' E 139°49'1 1.1
2017-Sep-14 01:00N 35°10' E 139°49'611.8
2017-Sep-14 00:31N 35°13' E 139°43'0 0.5
2017-Sep-14 00:00N 35°13' E 139°43'3 6.8
2017-Sep-13 23:31N 35°12' E 139°47'3 4.8
2017-Sep-13 22:59N 35°10' E 139°49'510.4
2017-Sep-13 22:30N 35°13' E 139°44'1 1.7
2017-Sep-13 22:00N 35°13' E 139°43'4 9.0
2017-Sep-13 21:31N 35°11' E 139°48'2 3.1
2017-Sep-13 21:01N 35°10' E 139°49'0 0.0
2017-Sep-13 11:03N 35°10' E 139°49'0 0.0
2017-Sep-13 11:00N 35°10' E 139°49'4 8.4
2017-Sep-13 10:30N 35°13' E 139°45'2 3.5
2017-Sep-13 10:00N 35°13' E 139°43'510.4
2017-Sep-13 09:30N 35°11' E 139°48'1 1.4
2017-Sep-13 09:00N 35°10' E 139°49'611.7
2017-Sep-13 08:30N 35°13' E 139°43'0 0.5
2017-Sep-13 08:00N 35°13' E 139°43'610.9
2017-Sep-13 07:30N 35°10' E 139°49'0 0.3
2017-Sep-13 07:00N 35°10' E 139°49'611.3
2017-Sep-13 06:30N 35°13' E 139°43'0 0.5
2017-Sep-13 06:00N 35°13' E 139°43'0 0.0
2017-Sep-13 05:30N 35°13' E 139°43'2 4.4
2017-Sep-13 05:00N 35°12' E 139°45'4 7.4
2017-Sep-13 04:30N 35°10' E 139°49'0 0.0
2017-Sep-13 04:00N 35°10' E 139°49'3 6.0
2017-Sep-13 03:30N 35°12' E 139°46'3 5.6
2017-Sep-13 03:00N 35°13' E 139°43'0 0.0
2017-Sep-13 02:30N 35°13' E 139°43'0 0.4
2017-Sep-13 02:00N 35°13' E 139°43'510.9
2017-Sep-13 01:30N 35°10' E 139°49'0 1.0
2017-Sep-13 01:00N 35°10' E 139°49'611.8
2017-Sep-13 00:30N 35°13' E 139°43'0 0.5
2017-Sep-13 00:00N 35°13' E 139°43'3 6.5
2017-Sep-12 23:30N 35°12' E 139°47'3 5.2
2017-Sep-12 23:00N 35°10' E 139°49'5 9.9
2017-Sep-12 22:30N 35°13' E 139°44'1 1.9
2017-Sep-12 21:59N 35°13' E 139°43'4 9.0
2017-Sep-12 21:30N 35°11' E 139°48'2 3.1
2017-Sep-12 21:00N 35°10' E 139°49'0 0.0
2017-Sep-12 11:14N 35°10' E 139°49'0 0.0
2017-Sep-12 10:59N 35°10' E 139°49'4 7.9
2017-Sep-12 10:30N 35°13' E 139°45'2 4.4
2017-Sep-12 10:00N 35°13' E 139°43'510.8
2017-Sep-12 09:30N 35°11' E 139°49'0 0.4
2017-Sep-12 09:00N 35°10' E 139°49'611.2
2017-Sep-12 08:30N 35°13' E 139°43'1 1.1
2017-Sep-12 08:00N 35°13' E 139°44'510.7
2017-Sep-12 07:30N 35°10' E 139°49'0 0.1
2017-Sep-12 07:00N 35°10' E 139°49'611.6
2017-Sep-12 06:30N 35°13' E 139°43'0 0.5
2017-Sep-12 06:00N 35°13' E 139°43'0 0.0
2017-Sep-12 05:30N 35°13' E 139°43'3 5.4
2017-Sep-12 05:00N 35°12' E 139°46'3 6.3
2017-Sep-12 04:30N 35°10' E 139°49'0 0.0
2017-Sep-12 04:00N 35°10' E 139°49'3 6.1
2017-Sep-12 03:30N 35°12' E 139°46'3 5.4
2017-Sep-12 02:59N 35°13' E 139°43'0 0.0
2017-Sep-12 02:30N 35°13' E 139°43'0 0.1
2017-Sep-12 02:01N 35°13' E 139°43'510.4
2017-Sep-12 01:30N 35°11' E 139°48'1 1.1
2017-Sep-12 01:01N 35°10' E 139°49'611.4
2017-Sep-12 00:30N 35°13' E 139°43'0 0.3
2017-Sep-12 00:00N 35°13' E 139°43'3 6.8
2017-Sep-11 23:30N 35°11' E 139°47'2 4.9
2017-Sep-11 23:00N 35°10' E 139°49'5 9.9
2017-Sep-11 22:30N 35°13' E 139°44'1 1.9
2017-Sep-11 22:00N 35°13' E 139°43'4 8.9
2017-Sep-11 21:30N 35°11' E 139°48'1 2.9
2017-Sep-11 21:00N 35°10' E 139°49'0 0.0
2017-Sep-11 10:57N 35°10' E 139°49'4 9.4
2017-Sep-11 10:30N 35°13' E 139°45'1 2.9
2017-Sep-11 10:00N 35°13' E 139°43'510.0
2017-Sep-11 09:30N 35°10' E 139°49'0 0.3
2017-Sep-11 09:00N 35°10' E 139°49'611.2
2017-Sep-11 08:30N 35°13' E 139°43'1 1.8
2017-Sep-11 08:00N 35°13' E 139°44'510.1
2017-Sep-11 07:30N 35°10' E 139°49'0 0.1
2017-Sep-11 07:00N 35°10' E 139°49'611.8
2017-Sep-11 06:30N 35°13' E 139°43'0 0.4
2017-Sep-11 06:00N 35°13' E 139°43'0 0.0
2017-Sep-11 05:30N 35°13' E 139°43'3 5.4
2017-Sep-11 05:00N 35°12' E 139°46'3 6.6
2017-Sep-11 04:30N 35°10' E 139°49'0 0.0
2017-Sep-11 04:00N 35°10' E 139°49'3 6.3
2017-Sep-11 03:30N 35°12' E 139°46'3 5.1
2017-Sep-11 02:58N 35°13' E 139°43'0 0.0
2017-Sep-11 02:30N 35°13' E 139°43'0 0.1
2017-Sep-11 02:00N 35°13' E 139°43'510.7
2017-Sep-11 01:30N 35°11' E 139°49'1 1.0
2017-Sep-11 01:00N 35°10' E 139°49'611.7
2017-Sep-11 00:30N 35°13' E 139°43'0 0.4
2017-Sep-11 00:00N 35°13' E 139°43'4 7.0
2017-Sep-10 23:30N 35°12' E 139°47'2 4.8
2017-Sep-10 23:00N 35°10' E 139°49'5 9.6
2017-Sep-10 22:30N 35°13' E 139°44'1 2.2
2017-Sep-10 22:00N 35°13' E 139°43'5 9.1
2017-Sep-10 21:30N 35°11' E 139°48'1 2.6
2017-Sep-10 21:00N 35°10' E 139°49'0 0.0
2017-Sep-10 10:56N 35°10' E 139°49'4 9.6
2017-Sep-10 10:30N 35°13' E 139°45'2 3.7
2017-Sep-10 10:00N 35°13' E 139°43'510.9
2017-Sep-10 09:30N 35°11' E 139°49'1 1.0
2017-Sep-10 09:00N 35°10' E 139°49'611.6
2017-Sep-10 08:30N 35°13' E 139°43'1 2.1
2017-Sep-10 08:00N 35°13' E 139°44'5 9.4
2017-Sep-10 07:30N 35°10' E 139°49'0 0.1
2017-Sep-10 07:00N 35°10' E 139°49'611.7
2017-Sep-10 06:30N 35°13' E 139°43'0 0.5
2017-Sep-10 06:00N 35°13' E 139°43'4 8.8
2017-Sep-10 05:30N 35°11' E 139°48'1 3.0
2017-Sep-10 05:00N 35°10' E 139°49'510.3
2017-Sep-10 04:30N 35°13' E 139°44'1 1.4
2017-Sep-10 04:00N 35°13' E 139°43'611.6
2017-Sep-10 03:30N 35°10' E 139°49'0 0.1
2017-Sep-10 03:00N 35°10' E 139°49'611.5
2017-Sep-10 02:30N 35°13' E 139°43'0 0.5
2017-Sep-10 02:00N 35°13' E 139°43'510.9
2017-Sep-10 01:30N 35°11' E 139°49'0 0.8
2017-Sep-10 01:00N 35°10' E 139°49'611.5
2017-Sep-10 00:30N 35°13' E 139°43'0 0.5
2017-Sep-10 00:00N 35°13' E 139°43'3 6.7
2017-Sep-09 23:30N 35°12' E 139°47'3 5.2
2017-Sep-09 23:00N 35°10' E 139°49'5 9.6
2017-Sep-09 22:30N 35°13' E 139°44'1 2.2
2017-Sep-09 22:00N 35°13' E 139°43'  
Track history (hours):
 
Tides and Currents Weather Stations Pressure Air Temp Water Temp Dewpoint Dewpoint Depression Visibility Wind Speed Wind Dir Waves Ship Positions

Shirahamamaru

Last reported at 2017-Sep-19 22:30 UTC. Time now 2017-Sep-19 22:26 UTC.
Position N 35°13' E 139°44'.

Length 79 m; draft 3.2 m.

Type: Passenger vessel. MMSI: 431000239.

Date/timePositionNaut miles runAvg speedWind from/ knotsBaromVisibWave heightAir tempDewpointWater temp
2017-Sep-19 22:30N 35°13' E 139°44'1 1.9
2017-Sep-19 22:00N 35°13' E 139°43'4 8.9
2017-Sep-19 21:30N 35°11' E 139°48'1 2.9
2017-Sep-19 21:00N 35°10' E 139°49'0 0.0
2017-Sep-19 10:56N 35°10' E 139°49'410.0
2017-Sep-19 10:30N 35°13' E 139°45'2 3.2
2017-Sep-19 10:00N 35°13' E 139°43'610.9
2017-Sep-19 09:30N 35°10' E 139°49'0 0.9
2017-Sep-19 09:00N 35°10' E 139°49'611.7
2017-Sep-19 08:30N 35°13' E 139°43'1 1.4
2017-Sep-19 08:00N 35°13' E 139°44'5 9.9
2017-Sep-19 07:29N 35°10' E 139°49'0 0.2
2017-Sep-19 07:00N 35°10' E 139°49'611.6
2017-Sep-19 06:30N 35°13' E 139°43'0 0.3
2017-Sep-19 06:00N 35°13' E 139°43'0 0.0
2017-Sep-19 05:30N 35°13' E 139°43'3 5.2
2017-Sep-19 05:00N 35°13' E 139°46'3 6.9
2017-Sep-19 04:30N 35°10' E 139°49'0 0.0
2017-Sep-19 04:00N 35°10' E 139°49'3 6.5
2017-Sep-19 03:30N 35°12' E 139°46'3 5.4
2017-Sep-19 03:00N 35°13' E 139°43'0 0.0
2017-Sep-19 02:30N 35°13' E 139°43'0 0.1
2017-Sep-19 02:00N 35°13' E 139°43'611.1
2017-Sep-19 01:30N 35°10' E 139°49'0 0.6
2017-Sep-19 01:00N 35°10' E 139°49'611.8
2017-Sep-19 00:30N 35°13' E 139°43'0 0.5
2017-Sep-19 00:00N 35°13' E 139°43'4 7.2
2017-Sep-18 23:30N 35°12' E 139°47'2 5.0
2017-Sep-18 23:00N 35°10' E 139°49'5 9.6
2017-Sep-18 22:30N 35°13' E 139°44'1 2.2
2017-Sep-18 22:00N 35°13' E 139°43'4 8.8
2017-Sep-18 21:30N 35°11' E 139°48'1 2.9
2017-Sep-18 21:00N 35°10' E 139°49'0 0.0
2017-Sep-18 11:05N 35°10' E 139°49'0 0.0
2017-Sep-18 11:00N 35°10' E 139°49'4 7.8
2017-Sep-18 10:30N 35°12' E 139°45'2 4.0
2017-Sep-18 10:00N 35°13' E 139°43'510.7
2017-Sep-18 09:30N 35°11' E 139°49'0 0.9
2017-Sep-18 09:00N 35°10' E 139°49'611.5
2017-Sep-18 08:30N 35°13' E 139°43'0 0.5
2017-Sep-18 08:00N 35°13' E 139°43'1 2.5
2017-Sep-18 07:30N 35°13' E 139°44'5 9.2
2017-Sep-18 07:01N 35°18' E 139°43'3 6.0
2017-Sep-18 06:30N 35°19' E 139°39'0 0.1
2017-Sep-18 06:01N 35°19' E 139°39'0 0.1
2017-Sep-18 05:31N 35°19' E 139°39'0 0.0
2017-Sep-18 05:00N 35°19' E 139°39'0 0.0
2017-Sep-18 04:31N 35°19' E 139°39'0 0.0
2017-Sep-18 04:01N 35°19' E 139°39'0 0.0
2017-Sep-18 03:30N 35°19' E 139°39'0 0.0
2017-Sep-18 03:01N 35°19' E 139°39'0 0.0
2017-Sep-18 02:31N 35°19' E 139°39'0 0.0
2017-Sep-18 02:00N 35°19' E 139°39'0 0.0
2017-Sep-18 01:30N 35°19' E 139°39'0 0.0
2017-Sep-18 01:00N 35°19' E 139°39'0 0.0
2017-Sep-18 00:30N 35°19' E 139°39'0 0.0
2017-Sep-18 00:00N 35°19' E 139°39'0 0.0
2017-Sep-17 23:29N 35°19' E 139°39'0 0.0
2017-Sep-17 23:00N 35°19' E 139°39'0 0.0
2017-Sep-17 22:30N 35°19' E 139°39'0 0.0
2017-Sep-17 22:00N 35°19' E 139°39'0 0.0
2017-Sep-17 21:30N 35°19' E 139°39'0 0.0
2017-Sep-17 21:00N 35°19' E 139°39'0 0.0
2017-Sep-17 20:30N 35°19' E 139°39'0 0.0
2017-Sep-17 20:00N 35°19' E 139°39'0 0.0
2017-Sep-17 19:30N 35°19' E 139°39'0 0.0
2017-Sep-17 19:01N 35°19' E 139°39'0 0.0
2017-Sep-17 18:30N 35°19' E 139°39'0 0.0
2017-Sep-17 18:00N 35°19' E 139°39'0 0.0
2017-Sep-17 17:30N 35°19' E 139°39'0 0.0
2017-Sep-17 17:00N 35°19' E 139°39'0 0.0
2017-Sep-17 16:30N 35°19' E 139°39'0 0.1
2017-Sep-17 16:01N 35°19' E 139°39'0 0.0
2017-Sep-17 15:30N 35°19' E 139°39'0 0.0
2017-Sep-17 15:00N 35°19' E 139°39'0 0.0
2017-Sep-17 14:30N 35°19' E 139°39'0 0.1
2017-Sep-17 14:00N 35°19' E 139°39'0 0.2
2017-Sep-17 13:31N 35°19' E 139°39'0 0.0
2017-Sep-17 12:59N 35°19' E 139°39'0 0.0
2017-Sep-17 12:30N 35°19' E 139°39'0 0.0
2017-Sep-17 12:00N 35°19' E 139°39'0 0.0
2017-Sep-17 11:31N 35°19' E 139°39'0 0.0
2017-Sep-17 11:01N 35°19' E 139°39'0 0.0
2017-Sep-17 10:30N 35°19' E 139°39'0 0.0
2017-Sep-17 10:00N 35°19' E 139°39'0 0.0
2017-Sep-17 09:30N 35°19' E 139°39'0 0.0
2017-Sep-17 09:00N 35°19' E 139°39'0 0.0
2017-Sep-17 08:30N 35°19' E 139°39'0 0.0
2017-Sep-17 08:00N 35°19' E 139°39'0 0.0
2017-Sep-17 07:30N 35°19' E 139°39'1 1.9
2017-Sep-17 07:00N 35°19' E 139°41'510.5
2017-Sep-17 06:30N 35°15' E 139°45'3 5.9
2017-Sep-17 06:00N 35°13' E 139°43'4 8.8
2017-Sep-17 05:30N 35°11' E 139°48'2 3.0
2017-Sep-17 05:00N 35°10' E 139°49'5 9.9
2017-Sep-17 04:30N 35°13' E 139°44'1 2.0
2017-Sep-17 04:00N 35°13' E 139°43'510.9
2017-Sep-17 03:30N 35°10' E 139°49'0 0.9
2017-Sep-17 03:00N 35°10' E 139°49'611.8
2017-Sep-17 02:30N 35°13' E 139°43'0 0.4
2017-Sep-17 02:00N 35°13' E 139°43'510.8
2017-Sep-17 01:30N 35°10' E 139°49'1 1.0
2017-Sep-17 01:00N 35°10' E 139°49'611.7
2017-Sep-17 00:30N 35°13' E 139°43'0 0.5
2017-Sep-17 00:00N 35°13' E 139°43'3 6.9
2017-Sep-16 23:31N 35°12' E 139°47'3 5.0
2017-Sep-16 23:00N 35°10' E 139°49'5 9.8
2017-Sep-16 22:30N 35°13' E 139°44'1 2.0
2017-Sep-16 22:00N 35°13' E 139°43'4 8.6
2017-Sep-16 21:30N 35°11' E 139°48'2 3.2
2017-Sep-16 21:00N 35°10' E 139°49'0 0.0
2017-Sep-16 11:00N 35°10' E 139°49'4 7.7
2017-Sep-16 10:30N 35°12' E 139°45'2 4.0
2017-Sep-16 09:59N 35°13' E 139°43'511.1
2017-Sep-16 09:30N 35°11' E 139°49'1 1.1
2017-Sep-16 09:01N 35°10' E 139°49'611.7
2017-Sep-16 08:30N 35°13' E 139°43'0 0.7
2017-Sep-16 08:00N 35°13' E 139°43'511.1
2017-Sep-16 07:30N 35°10' E 139°49'0 0.2
2017-Sep-16 07:00N 35°10' E 139°49'611.6
2017-Sep-16 06:30N 35°13' E 139°43'0 0.4
2017-Sep-16 06:00N 35°13' E 139°43'4 8.6
2017-Sep-16 05:30N 35°11' E 139°48'2 3.2
2017-Sep-16 05:00N 35°10' E 139°49'510.3
2017-Sep-16 04:30N 35°13' E 139°44'1 1.5
2017-Sep-16 04:00N 35°13' E 139°43'510.9
2017-Sep-16 03:30N 35°10' E 139°49'0 0.1
2017-Sep-16 03:00N 35°10' E 139°49'510.9
2017-Sep-16 02:30N 35°13' E 139°43'0 0.0
2017-Sep-16 02:00N 35°13' E 139°43'611.0
2017-Sep-16 01:30N 35°10' E 139°49'0 0.1
2017-Sep-16 01:00N 35°10' E 139°49'611.2
2017-Sep-16 00:30N 35°13' E 139°43'0 0.3
2017-Sep-16 00:00N 35°13' E 139°43'4 7.0
2017-Sep-15 23:30N 35°12' E 139°47'2 4.7
2017-Sep-15 23:00N 35°10' E 139°49'510.0
2017-Sep-15 22:30N 35°13' E 139°44'1 1.9
2017-Sep-15 22:00N 35°13' E 139°43'5 9.0
2017-Sep-15 21:30N 35°11' E 139°47'1 2.8
2017-Sep-15 21:00N 35°10' E 139°49'0 0.0
2017-Sep-15 11:12N 35°10' E 139°49'0 0.0
2017-Sep-15 11:00N 35°10' E 139°49'4 8.7
2017-Sep-15 10:30N 35°13' E 139°45'2 3.4
2017-Sep-15 10:00N 35°13' E 139°43'511.0
2017-Sep-15 09:30N 35°10' E 139°49'0 1.0
2017-Sep-15 09:00N 35°10' E 139°49'611.9
2017-Sep-15 08:30N 35°13' E 139°43'1 1.1
2017-Sep-15 08:00N 35°13' E 139°44'510.6
2017-Sep-15 07:30N 35°10' E 139°49'0 0.3
2017-Sep-15 07:00N 35°10' E 139°49'611.7
2017-Sep-15 06:31N 35°13' E 139°43'0 0.4
2017-Sep-15 05:59N 35°13' E 139°43'0 0.0
2017-Sep-15 05:30N 35°13' E 139°43'2 4.7
2017-Sep-15 05:01N 35°12' E 139°45'4 7.0
2017-Sep-15 04:30N 35°10' E 139°49'0 0.0
2017-Sep-15 04:00N 35°10' E 139°49'3 6.6
2017-Sep-15 03:30N 35°12' E 139°46'3 5.2
2017-Sep-15 03:00N 35°13' E 139°43'0 0.0
2017-Sep-15 02:30N 35°13' E 139°43'0 0.2
2017-Sep-15 02:00N 35°13' E 139°43'511.1
2017-Sep-15 01:30N 35°11' E 139°49'0 0.4
2017-Sep-15 01:00N 35°10' E 139°49'611.3
2017-Sep-15 00:30N 35°13' E 139°43'0 0.4
2017-Sep-15 00:00N 35°13' E 139°43'4 7.1
2017-Sep-14 23:30N 35°12' E 139°47'2 4.7
2017-Sep-14 23:00N 35°10' E 139°49'5 9.6
2017-Sep-14 22:30N 35°13' E 139°44'1 2.2
2017-Sep-14 22:00N 35°13' E 139°43'4 8.8
2017-Sep-14 21:30N 35°11' E 139°47'2 3.0
2017-Sep-14 21:01N 35°10' E 139°49'0 0.0
2017-Sep-14 10:56N 35°10' E 139°49'4 9.7
2017-Sep-14 10:31N 35°13' E 139°45'2 3.5
2017-Sep-14 10:01N 35°13' E 139°43'610.9
2017-Sep-14 09:30N 35°10' E 139°49'0 0.4
2017-Sep-14 09:01N 35°10' E 139°49'611.2
2017-Sep-14 08:30N 35°13' E 139°43'1 1.1
2017-Sep-14 08:00N 35°13' E 139°44'510.1
2017-Sep-14 07:29N 35°10' E 139°49'0 0.7
2017-Sep-14 07:01N 35°10' E 139°49'611.1
2017-Sep-14 06:31N 35°13' E 139°43'0 0.2
2017-Sep-14 06:00N 35°13' E 139°43'0 0.0
2017-Sep-14 05:29N 35°13' E 139°43'2 5.2
2017-Sep-14 05:00N 35°12' E 139°46'3 6.9
2017-Sep-14 04:31N 35°10' E 139°49'0 0.0
2017-Sep-14 04:01N 35°10' E 139°49'3 6.1
2017-Sep-14 03:31N 35°12' E 139°46'3 4.6
2017-Sep-14 02:54N 35°13' E 139°43'0 0.0
2017-Sep-14 02:26N 35°13' E 139°43'0 0.1
2017-Sep-14 02:00N 35°13' E 139°43'510.8
2017-Sep-14 01:31N 35°11' E 139°49'1 1.1
2017-Sep-14 01:00N 35°10' E 139°49'611.8
2017-Sep-14 00:31N 35°13' E 139°43'0 0.5
2017-Sep-14 00:00N 35°13' E 139°43'3 6.8
2017-Sep-13 23:31N 35°12' E 139°47'3 4.8
2017-Sep-13 22:59N 35°10' E 139°49'510.4
2017-Sep-13 22:30N 35°13' E 139°44'1 1.7
2017-Sep-13 22:00N 35°13' E 139°43'4 9.0
2017-Sep-13 21:31N 35°11' E 139°48'2 3.1
2017-Sep-13 21:01N 35°10' E 139°49'0 0.0
2017-Sep-13 11:03N 35°10' E 139°49'0 0.0
2017-Sep-13 11:00N 35°10' E 139°49'4 8.4
2017-Sep-13 10:30N 35°13' E 139°45'2 3.5
2017-Sep-13 10:00N 35°13' E 139°43'510.4
2017-Sep-13 09:30N 35°11' E 139°48'1 1.4
2017-Sep-13 09:00N 35°10' E 139°49'611.7
2017-Sep-13 08:30N 35°13' E 139°43'0 0.5
2017-Sep-13 08:00N 35°13' E 139°43'610.9
2017-Sep-13 07:30N 35°10' E 139°49'0 0.3
2017-Sep-13 07:00N 35°10' E 139°49'611.3
2017-Sep-13 06:30N 35°13' E 139°43'0 0.5
2017-Sep-13 06:00N 35°13' E 139°43'0 0.0
2017-Sep-13 05:30N 35°13' E 139°43'2 4.4
2017-Sep-13 05:00N 35°12' E 139°45'4 7.4
2017-Sep-13 04:30N 35°10' E 139°49'0 0.0
2017-Sep-13 04:00N 35°10' E 139°49'3 6.0
2017-Sep-13 03:30N 35°12' E 139°46'3 5.6
2017-Sep-13 03:00N 35°13' E 139°43'0 0.0
2017-Sep-13 02:30N 35°13' E 139°43'0 0.4
2017-Sep-13 02:00N 35°13' E 139°43'510.9
2017-Sep-13 01:30N 35°10' E 139°49'0 1.0
2017-Sep-13 01:00N 35°10' E 139°49'611.8
2017-Sep-13 00:30N 35°13' E 139°43'0 0.5
2017-Sep-13 00:00N 35°13' E 139°43'3 6.5
2017-Sep-12 23:30N 35°12' E 139°47'3 5.2
2017-Sep-12 23:00N 35°10' E 139°49'5 9.9
2017-Sep-12 22:30N 35°13' E 139°44'1 1.9
2017-Sep-12 21:59N 35°13' E 139°43'4 9.0
2017-Sep-12 21:30N 35°11' E 139°48'2 3.1
2017-Sep-12 21:00N 35°10' E 139°49'0 0.0
2017-Sep-12 11:14N 35°10' E 139°49'0 0.0
2017-Sep-12 10:59N 35°10' E 139°49'4 7.9
2017-Sep-12 10:30N 35°13' E 139°45'2 4.4
2017-Sep-12 10:00N 35°13' E 139°43'510.8
2017-Sep-12 09:30N 35°11' E 139°49'0 0.4
2017-Sep-12 09:00N 35°10' E 139°49'611.2
2017-Sep-12 08:30N 35°13' E 139°43'1 1.1
2017-Sep-12 08:00N 35°13' E 139°44'510.7
2017-Sep-12 07:30N 35°10' E 139°49'0 0.1
2017-Sep-12 07:00N 35°10' E 139°49'611.6
2017-Sep-12 06:30N 35°13' E 139°43'0 0.5
2017-Sep-12 06:00N 35°13' E 139°43'0 0.0
2017-Sep-12 05:30N 35°13' E 139°43'3 5.4
2017-Sep-12 05:00N 35°12' E 139°46'3 6.3
2017-Sep-12 04:30N 35°10' E 139°49'0 0.0
2017-Sep-12 04:00N 35°10' E 139°49'3 6.1
2017-Sep-12 03:30N 35°12' E 139°46'3 5.4
2017-Sep-12 02:59N 35°13' E 139°43'0 0.0
2017-Sep-12 02:30N 35°13' E 139°43'0 0.1
2017-Sep-12 02:01N 35°13' E 139°43'510.4
2017-Sep-12 01:30N 35°11' E 139°48'1 1.1
2017-Sep-12 01:01N 35°10' E 139°49'611.4
2017-Sep-12 00:30N 35°13' E 139°43'0 0.3
2017-Sep-12 00:00N 35°13' E 139°43'3 6.8
2017-Sep-11 23:30N 35°11' E 139°47'2 4.9
2017-Sep-11 23:00N 35°10' E 139°49'5 9.9
2017-Sep-11 22:30N 35°13' E 139°44'1 1.9
2017-Sep-11 22:00N 35°13' E 139°43'4 8.9
2017-Sep-11 21:30N 35°11' E 139°48'1 2.9
2017-Sep-11 21:00N 35°10' E 139°49'0 0.0
2017-Sep-11 10:57N 35°10' E 139°49'4 9.4
2017-Sep-11 10:30N 35°13' E 139°45'1 2.9
2017-Sep-11 10:00N 35°13' E 139°43'510.0
2017-Sep-11 09:30N 35°10' E 139°49'0 0.3
2017-Sep-11 09:00N 35°10' E 139°49'611.2
2017-Sep-11 08:30N 35°13' E 139°43'1 1.8
2017-Sep-11 08:00N 35°13' E 139°44'510.1
2017-Sep-11 07:30N 35°10' E 139°49'0 0.1
2017-Sep-11 07:00N 35°10' E 139°49'611.8
2017-Sep-11 06:30N 35°13' E 139°43'0 0.4
2017-Sep-11 06:00N 35°13' E 139°43'0 0.0
2017-Sep-11 05:30N 35°13' E 139°43'3 5.4
2017-Sep-11 05:00N 35°12' E 139°46'3 6.6
2017-Sep-11 04:30N 35°10' E 139°49'0 0.0
2017-Sep-11 04:00N 35°10' E 139°49'3 6.3
2017-Sep-11 03:30N 35°12' E 139°46'3 5.1
2017-Sep-11 02:58N 35°13' E 139°43'0 0.0
2017-Sep-11 02:30N 35°13' E 139°43'0 0.1
2017-Sep-11 02:00N 35°13' E 139°43'510.7
2017-Sep-11 01:30N 35°11' E 139°49'1 1.0
2017-Sep-11 01:00N 35°10' E 139°49'611.7
2017-Sep-11 00:30N 35°13' E 139°43'0 0.4
2017-Sep-11 00:00N 35°13' E 139°43'4 7.0
2017-Sep-10 23:30N 35°12' E 139°47'2 4.8
2017-Sep-10 23:00N 35°10' E 139°49'5 9.6
2017-Sep-10 22:30N 35°13' E 139°44'1 2.2
2017-Sep-10 22:00N 35°13' E 139°43'5 9.1
2017-Sep-10 21:30N 35°11' E 139°48'1 2.6
2017-Sep-10 21:00N 35°10' E 139°49'0 0.0
2017-Sep-10 10:56N 35°10' E 139°49'4 9.6
2017-Sep-10 10:30N 35°13' E 139°45'2 3.7
2017-Sep-10 10:00N 35°13' E 139°43'510.9
2017-Sep-10 09:30N 35°11' E 139°49'1 1.0
2017-Sep-10 09:00N 35°10' E 139°49'611.6
2017-Sep-10 08:30N 35°13' E 139°43'1 2.1
2017-Sep-10 08:00N 35°13' E 139°44'5 9.4
2017-Sep-10 07:30N 35°10' E 139°49'0 0.1
2017-Sep-10 07:00N 35°10' E 139°49'611.7
2017-Sep-10 06:30N 35°13' E 139°43'0 0.5
2017-Sep-10 06:00N 35°13' E 139°43'4 8.8
2017-Sep-10 05:30N 35°11' E 139°48'1 3.0
2017-Sep-10 05:00N 35°10' E 139°49'510.3
2017-Sep-10 04:30N 35°13' E 139°44'1 1.4
2017-Sep-10 04:00N 35°13' E 139°43'611.6
2017-Sep-10 03:30N 35°10' E 139°49'0 0.1
2017-Sep-10 03:00N 35°10' E 139°49'611.5
2017-Sep-10 02:30N 35°13' E 139°43'0 0.5
2017-Sep-10 02:00N 35°13' E 139°43'510.9
2017-Sep-10 01:30N 35°11' E 139°49'0 0.8
2017-Sep-10 01:00N 35°10' E 139°49'611.5
2017-Sep-10 00:30N 35°13' E 139°43'0 0.5
2017-Sep-10 00:00N 35°13' E 139°43'3 6.7
2017-Sep-09 23:30N 35°12' E 139°47'3 5.2
2017-Sep-09 23:00N 35°10' E 139°49'5 9.6
2017-Sep-09 22:30N 35°13' E 139°44'1 2.2
2017-Sep-09 22:00N 35°13' E 139°43'  

Dump ship's entire track history